Portada
METAR-TAF:

METAR-TAF

Aeroports :

Christchurch, Nova Zelanda

latitud: 43-29S, longitud: 172-33E, altitud: 38 m

Observació

L'informe es va fer fa 41 minuts, a les 09:30 UTC
Vent 3 kt del Oest
Temperatura 8°C
Humitat 93%
Pressió 1021 hPa
Visibilitat 10 km o més

METAR: NZCH 290930Z AUTO 26003KT 9999 FEW032/// 08/07 Q1021 NOSIG

Hora: 22:11 (10:11 UTC)

Pronòstic

L'informe es va fer fa 5 hores i 7 minuts, a les 05:04 UTC
Pronòstic vàlid del 29 a les 06 UTC al 30 a les 06 UTC
Vent 5 kt del Oest
Visibilitat 10 km o més
Cel ennuvolat a una alçada de 3000 ft
Probabilitat 30% :
Temporalment
l' 29 a les 13 UTC al 29 a les 20 UTC
Visibilitat: 2000 m
boirina
A partir de les 30 a les 0000 UTC
Vent 10 kt del Nord-Est
Visibilitat 10 km o més
sense núvols per sota de 1500 mi sense presència de cumulonimbus.

TAF: NZCH 290504Z 2906/3006 27005KT 9999 BKN030 PROB30 TEMPO 2913/2920 2000 BR FM300000 04010KT CAVOK

Observacions i pronòstics meteorològics de més de 4000 aeroports (METAR i TAF).

Les estacions disponibles són els punts grocs i vermells al mapa.

Posi el ratolí al punt desitjat per veure el nom de l'estació.

Feu clic per veure les observacions i els pronòstics meteorològics.

Per canviar el mapa: feu clic els botons verds amb una creu de color negre per apropar; al botó verd amb un guió per allunyar la imatge; o en les fletxes verdes per a mapes adjacents.


METAR-TAF: